Terminal Aerodrome Forecast
Issued by NWS

Home | Current Version | Previous Version | Text Only | Print | Product List | Glossary On
Versions: 1 2 3 4 5 6 7 8 9 10 11 12 13 14 15 16
000
FTUS46 KMTR 260500
TAFSTS
TAF
KSTS 260524Z 2606/2706 00000KT 1/2SM FG VV001
     FM261800 00000KT 3SM BR SCT010 BKN250
     FM262000 VRB03KT P6SM BKN250=

USA.gov is the U.S. government's official web portal to all federal, state and local government web resources and services.